Piedmont, California
Current Conditions -  °F | °C
As of 1:53 AM on Thursday 29 Jan 2015 (Local Time) from KOAK Reporting Station
Few Clouds Few Clouds  
Wind Chill:   Ceiling: Unl
Heat Index:   Visibility: 10mi
Dew Point:   Wind: 3mph
Humidity: 89%   Direction: 120°ESE
Pressure: 30.17"   Gusts: NA
Location:  37.82°N, 122.23°W
Report Text: KOAK 290953Z 12003KT 10SM FEW200 09/07 A3017 RMK AO2 SLP215 T00890072
Loading
Personal Weather Stations






























Interactive Weather Map New forecast layout! Learn more

10-Day Weather Forecast

Advertisements
Track Severe Weather on mobile